Time;durP1;ratioP1;P1;durP2;ratioP2;P2;SDS_P1;SDS_P2;PMS_P1;PMS_P2;Temp;Humidity;BMP_temperature;BMP_pressure;BME280_temperature;BME280_humidity;BME280_pressure;Samples;Min_cycle;Max_cycle;Signal;HPM_P1;HPM_P2
2023/08/25 00:04:20;;;;;;;1.98;1.73;;;26.40;99.90;;;;;;10093920;28;20413;-76
2023/08/25 00:09:11;;;;;;;2.70;1.80;;;26.20;99.90;;;;;;10095254;28;20103;-74
2023/08/25 00:14:02;;;;;;;3.63;3.20;;;26.30;99.90;;;;;;10097946;28;20063;-75
2023/08/25 00:18:53;;;;;;;3.22;1.98;;;26.40;99.90;;;;;;10101596;28;20025;-74
2023/08/25 00:23:44;;;;;;;2.08;1.88;;;26.40;99.90;;;;;;10100569;28;20028;-75
2023/08/25 00:28:34;;;;;;;2.35;1.80;;;26.30;99.90;;;;;;10101349;28;20033;-74
2023/08/25 00:33:25;;;;;;;3.83;1.90;;;26.30;99.90;;;;;;10107577;28;20128;-74
2023/08/25 00:38:16;;;;;;;3.05;1.90;;;26.30;99.90;;;;;;10107742;28;20017;-74
2023/08/25 00:43:06;;;;;;;2.88;1.70;;;26.10;99.90;;;;;;10095451;28;20036;-75
2023/08/25 00:47:57;;;;;;;3.08;1.60;;;26.10;99.90;;;;;;10104440;28;20024;-74
2023/08/25 00:52:48;;;;;;;2.63;2.00;;;26.00;99.90;;;;;;10093709;28;20430;-74
2023/08/25 00:57:40;;;;;;;3.90;2.35;;;26.00;99.90;;;;;;10081875;28;20028;-73
2023/08/25 01:02:30;;;;;;;2.47;1.90;;;26.20;99.90;;;;;;10082466;28;20079;-72
2023/08/25 01:07:21;;;;;;;4.32;1.80;;;26.10;99.90;;;;;;10099746;28;20048;-72
2023/08/25 01:12:30;;;;;;;4.25;1.92;;;26.20;99.90;;;;;;10099622;28;20507;-72
2023/08/25 01:17:48;;;;;;;5.53;2.30;;;26.10;99.90;;;;;;10099249;28;20550;-72
2023/08/25 01:22:58;;;;;;;4.53;2.40;;;25.90;99.90;;;;;;10107170;28;20094;-71
2023/08/25 01:27:50;;;;;;;4.93;2.10;;;25.90;99.90;;;;;;10090441;28;20030;-71
2023/08/25 01:32:41;;;;;;;4.05;2.60;;;25.80;99.90;;;;;;10071475;28;20136;-72
2023/08/25 01:37:39;;;;;;;3.42;2.20;;;25.90;99.90;;;;;;10103140;28;20116;-73
2023/08/25 01:42:32;;;;;;;2.40;1.80;;;26.00;99.90;;;;;;10100487;28;20410;-72
2023/08/25 01:47:24;;;;;;;2.83;1.80;;;25.80;99.90;;;;;;10098628;28;20111;-73
2023/08/25 01:52:18;;;;;;;6.40;1.90;;;25.90;99.90;;;;;;10097507;28;20048;-72
2023/08/25 01:57:09;;;;;;;3.60;1.77;;;25.80;99.90;;;;;;10098013;28;20449;-72
2023/08/25 02:02:00;;;;;;;3.03;2.00;;;25.80;99.90;;;;;;10097360;28;20036;-73
2023/08/25 02:06:52;;;;;;;4.75;1.98;;;25.70;99.90;;;;;;10080006;28;20032;-71
2023/08/25 02:11:43;;;;;;;1.45;1.27;;;25.70;99.90;;;;;;10097084;28;20167;-72
2023/08/25 02:16:34;;;;;;;2.85;1.70;;;25.70;99.90;;;;;;10091028;28;20187;-72
2023/08/25 02:21:24;;;;;;;1.80;1.30;;;25.70;99.90;;;;;;10096419;28;20090;-72
2023/08/25 02:26:15;;;;;;;3.47;1.65;;;25.60;99.90;;;;;;10096821;28;20137;-72
2023/08/25 02:31:06;;;;;;;2.58;1.60;;;25.50;99.90;;;;;;10101741;28;20036;-71
2023/08/25 02:35:57;;;;;;;4.13;2.00;;;25.60;99.90;;;;;;10101424;28;20260;-72
2023/08/25 02:40:47;;;;;;;3.47;1.50;;;25.50;99.90;;;;;;10078486;28;20036;-72
2023/08/25 02:45:38;;;;;;;3.22;2.13;;;25.50;99.90;;;;;;10091352;28;20537;-72
2023/08/25 02:50:29;;;;;;;2.10;1.67;;;25.50;99.90;;;;;;10095894;28;20037;-72
2023/08/25 02:55:21;;;;;;;2.97;1.80;;;25.30;99.90;;;;;;10096160;28;20033;-72
2023/08/25 03:00:14;;;;;;;2.88;1.90;;;25.30;99.90;;;;;;10104242;28;20032;-72
2023/08/25 03:05:05;;;;;;;5.28;1.85;;;25.30;99.90;;;;;;10094833;28;20349;-72
2023/08/25 03:09:56;;;;;;;4.50;2.10;;;25.10;99.90;;;;;;10074965;28;20505;-71
2023/08/25 03:14:47;;;;;;;6.00;2.08;;;25.20;99.90;;;;;;10095709;28;20131;-73
2023/08/25 03:19:38;;;;;;;3.50;1.83;;;25.30;99.90;;;;;;10077441;28;20045;-72
2023/08/25 03:24:29;;;;;;;1.92;1.63;;;25.00;99.90;;;;;;10096237;28;20483;-73
2023/08/25 03:29:19;;;;;;;6.70;2.45;;;25.00;99.90;;;;;;10095491;28;20537;-72
2023/08/25 03:34:10;;;;;;;4.38;2.15;;;24.90;99.90;;;;;;10099317;28;20096;-71
2023/08/25 03:39:02;;;;;;;2.25;1.65;;;24.80;99.90;;;;;;10098525;28;20324;-72
2023/08/25 03:43:52;;;;;;;3.70;1.90;;;24.70;99.90;;;;;;10075383;28;20485;-72
2023/08/25 03:48:43;;;;;;;1.75;1.63;;;24.90;99.90;;;;;;10103070;28;20554;-71
2023/08/25 03:53:34;;;;;;;3.55;1.70;;;25.00;99.90;;;;;;10102482;28;20029;-72
2023/08/25 03:58:25;;;;;;;3.47;2.30;;;25.20;99.90;;;;;;10084563;28;20380;-72
2023/08/25 04:03:16;;;;;;;2.58;1.90;;;25.00;99.90;;;;;;10102226;28;20052;-71
2023/08/25 04:08:07;;;;;;;5.65;1.92;;;24.90;99.90;;;;;;10091175;28;20545;-71
2023/08/25 04:12:57;;;;;;;4.30;2.10;;;24.80;99.90;;;;;;10101896;28;20114;-72
2023/08/25 04:17:48;;;;;;;4.05;2.13;;;24.80;99.90;;;;;;10102169;28;20115;-72
2023/08/25 04:22:41;;;;;;;3.10;2.10;;;24.90;99.90;;;;;;10101026;28;20041;-72
2023/08/25 04:27:31;;;;;;;4.30;1.95;;;24.90;99.90;;;;;;10101713;28;20064;-72
2023/08/25 04:32:22;;;;;;;4.80;2.03;;;25.00;99.90;;;;;;10107711;28;20069;-72
2023/08/25 04:37:13;;;;;;;4.15;2.00;;;25.00;99.90;;;;;;10107052;28;20025;-72
2023/08/25 04:42:03;;;;;;;2.75;2.30;;;25.00;99.90;;;;;;10099721;28;20498;-73
2023/08/25 04:46:54;;;;;;;3.63;2.25;;;25.00;99.90;;;;;;10101183;28;20495;-73
2023/08/25 04:51:45;;;;;;;5.13;2.10;;;24.90;99.90;;;;;;10100029;28;20511;-73
2023/08/25 04:56:36;;;;;;;2.55;1.80;;;24.90;99.90;;;;;;10081308;28;20025;-72
2023/08/25 05:01:26;;;;;;;7.28;3.08;;;24.80;99.90;;;;;;10095780;28;20087;-72
2023/08/25 05:06:17;;;;;;;7.25;2.40;;;24.90;99.90;;;;;;10087431;28;20038;-72
2023/08/25 05:11:09;;;;;;;3.28;1.60;;;24.70;99.90;;;;;;10090463;28;20400;-71
2023/08/25 05:16:00;;;;;;;4.57;2.70;;;24.60;99.90;;;;;;10099097;28;20029;-71
2023/08/25 05:20:57;;;;;;;29.02;5.43;;;24.30;99.90;;;;;;10074018;28;20045;-74
2023/08/25 05:25:47;;;;;;;6.95;3.60;;;24.10;99.90;;;;;;10077214;28;20170;-72
2023/08/25 05:30:41;;;;;;;6.78;3.00;;;22.20;99.90;;;;;;10100535;28;20254;-72
2023/08/25 05:35:32;;;;;;;4.47;2.80;;;21.80;99.90;;;;;;10109484;28;20553;-72
2023/08/25 05:40:23;;;;;;;6.50;2.92;;;21.70;99.90;;;;;;10098243;28;20106;-73
2023/08/25 05:45:13;;;;;;;4.38;2.40;;;21.80;99.90;;;;;;10094064;28;20117;-72
2023/08/25 05:50:05;;;;;;;5.78;2.53;;;21.90;99.90;;;;;;10102313;28;20557;-72
2023/08/25 05:54:55;;;;;;;3.40;2.53;;;21.90;99.90;;;;;;10097875;28;20064;-72
2023/08/25 05:59:47;;;;;;;4.70;3.15;;;21.90;99.90;;;;;;10097680;28;20025;-72
2023/08/25 06:04:37;;;;;;;5.43;2.88;;;22.00;99.90;;;;;;10079535;28;20033;-72
2023/08/25 06:09:28;;;;;;;5.72;3.13;;;21.90;99.90;;;;;;10078885;28;20033;-72
2023/08/25 06:14:19;;;;;;;4.30;2.45;;;22.00;99.90;;;;;;10097709;28;20098;-72
2023/08/25 06:19:10;;;;;;;6.45;2.70;;;22.00;99.90;;;;;;10096917;28;20026;-72
2023/08/25 06:24:01;;;;;;;7.15;2.72;;;22.10;99.90;;;;;;10096701;28;20035;-72
2023/08/25 06:28:52;;;;;;;7.70;2.30;;;22.10;99.90;;;;;;10097311;28;20033;-72
2023/08/25 06:33:43;;;;;;;4.15;1.90;;;22.10;99.90;;;;;;10103319;28;20386;-67
2023/08/25 06:38:33;;;;;;;5.65;1.60;;;22.20;99.90;;;;;;10096484;28;20025;-67
2023/08/25 06:43:24;;;;;;;3.60;2.00;;;22.20;99.90;;;;;;10073110;28;21041;-68
2023/08/25 06:48:15;;;;;;;3.53;1.83;;;22.20;99.90;;;;;;10096576;28;20028;-68
2023/08/25 06:53:07;;;;;;;5.55;2.75;;;22.20;99.90;;;;;;10095763;28;20430;-66
2023/08/25 06:57:59;;;;;;;7.60;2.50;;;22.20;99.90;;;;;;10096201;28;20029;-69
2023/08/25 07:02:49;;;;;;;4.93;2.50;;;22.20;99.90;;;;;;10095734;28;20036;-69
2023/08/25 07:07:42;;;;;;;4.97;1.75;;;22.20;99.90;;;;;;10095935;28;20437;-69
2023/08/25 07:12:32;;;;;;;7.68;3.80;;;22.30;99.90;;;;;;10098730;28;20065;-69
2023/08/25 07:17:26;;;;;;;8.93;3.30;;;22.30;99.90;;;;;;10093412;28;20078;-68
2023/08/25 07:22:17;;;;;;;4.25;3.58;;;22.20;99.90;;;;;;10084961;28;20086;-70
2023/08/25 07:27:07;;;;;;;3.50;2.28;;;22.30;99.90;;;;;;10089396;28;20158;-72
2023/08/25 07:31:58;;;;;;;3.47;2.08;;;22.20;99.90;;;;;;10093247;28;20037;-71
2023/08/25 07:36:49;;;;;;;5.93;2.42;;;22.30;99.90;;;;;;10101302;28;20029;-70
2023/08/25 07:41:40;;;;;;;5.70;2.70;;;22.40;99.90;;;;;;10093092;28;20033;-71
2023/08/25 07:46:35;;;;;;;4.68;2.30;;;22.30;99.90;;;;;;10096757;28;20509;-71
2023/08/25 07:51:26;;;;;;;3.70;2.08;;;22.40;99.90;;;;;;10102136;28;20082;-69
2023/08/25 07:56:16;;;;;;;3.33;2.25;;;22.40;99.90;;;;;;10096977;28;20528;-69
2023/08/25 08:01:07;;;;;;;5.03;2.50;;;22.40;99.90;;;;;;10103203;28;20139;-68
2023/08/25 08:05:59;;;;;;;3.60;1.95;;;22.40;99.90;;;;;;10102459;28;20032;-68
2023/08/25 08:10:49;;;;;;;5.65;2.67;;;22.50;99.90;;;;;;10083643;28;20423;-68
2023/08/25 08:15:40;;;;;;;4.10;2.45;;;22.50;99.90;;;;;;10101888;28;20036;-68
2023/08/25 08:20:33;;;;;;;2.97;2.30;;;22.60;99.90;;;;;;10102012;28;20040;-69
2023/08/25 08:25:25;;;;;;;4.38;2.47;;;22.60;99.90;;;;;;10095897;28;20029;-70
2023/08/25 08:30:16;;;;;;;5.95;3.30;;;22.70;99.90;;;;;;10099575;28;20029;-68
2023/08/25 08:35:08;;;;;;;4.38;2.40;;;22.70;99.90;;;;;;10112050;28;20743;-68
2023/08/25 08:39:58;;;;;;;3.78;2.10;;;22.70;99.90;;;;;;10081950;28;20372;-68
2023/08/25 08:44:52;;;;;;;3.30;2.53;;;22.70;99.90;;;;;;10095225;28;20107;-68
2023/08/25 08:49:44;;;;;;;5.72;2.35;;;22.70;99.90;;;;;;10082032;28;20033;-69
2023/08/25 08:54:37;;;;;;;3.90;2.22;;;22.80;99.90;;;;;;10101288;28;20041;-70
2023/08/25 08:59:28;;;;;;;3.97;2.22;;;22.90;99.90;;;;;;10099441;28;20032;-69
2023/08/25 09:04:20;;;;;;;4.47;3.35;;;23.00;99.90;;;;;;10099493;28;20071;-68
2023/08/25 09:09:14;;;;;;;2.95;2.38;;;23.00;99.90;;;;;;10099577;28;20025;-68
2023/08/25 09:14:05;;;;;;;5.17;2.60;;;22.90;99.90;;;;;;10099439;28;20049;-68
2023/08/25 09:19:00;;;;;;;4.90;2.67;;;22.90;99.90;;;;;;10094301;28;20162;-69
2023/08/25 09:24:03;;;;;;;3.92;2.63;;;22.90;99.90;;;;;;10099127;28;20037;-68
2023/08/25 09:28:58;;;;;;;5.95;3.10;;;23.00;99.90;;;;;;10089459;28;20025;-68
2023/08/25 09:33:49;;;;;;;;;;;23.00;99.90;;;;;;10083043;28;20044;-67
2023/08/25 09:38:44;;;;;;;6.05;2.47;;;23.10;99.90;;;;;;10100494;28;20374;-67
2023/08/25 09:43:35;;;;;;;3.85;2.90;;;23.20;99.90;;;;;;10088987;28;20067;-68
2023/08/25 09:48:26;;;;;;;4.65;3.60;;;23.10;99.90;;;;;;10090611;28;20570;-68
2023/08/25 09:53:18;;;;;;;5.22;3.30;;;23.10;99.90;;;;;;10097828;28;20399;-69
2023/08/25 09:58:11;;;;;;;3.97;2.58;;;23.20;99.90;;;;;;10090441;28;20017;-69
2023/08/25 10:03:10;;;;;;;3.40;2.90;;;23.30;99.90;;;;;;10075131;28;20041;-69
2023/08/25 10:08:01;;;;;;;8.30;3.45;;;23.40;99.90;;;;;;10079588;28;20111;-71
2023/08/25 10:12:55;;;;;;;5.50;3.10;;;23.50;99.90;;;;;;10091284;28;20493;-70
2023/08/25 10:17:47;;;;;;;4.07;2.80;;;23.50;99.90;;;;;;10093846;28;20423;-70
2023/08/25 10:22:44;;;;;;;4.32;3.88;;;23.60;99.90;;;;;;10078252;28;20097;-70
2023/08/25 10:27:34;;;;;;;7.88;3.75;;;23.60;99.90;;;;;;10096741;28;20037;-70
2023/08/25 10:32:55;;;;;;;7.07;3.60;;;23.70;99.90;;;;;;10100409;28;20090;-70
2023/08/25 10:37:52;;;;;;;5.10;3.53;;;23.80;99.90;;;;;;10103783;28;20040;-70
2023/08/25 10:42:43;;;;;;;5.97;3.72;;;23.70;99.90;;;;;;10091286;28;20280;-70
2023/08/25 10:47:51;;;;;;;4.80;2.67;;;23.70;99.90;;;;;;10096885;28;20025;-69
2023/08/25 10:52:50;;;;;;;6.32;3.50;;;23.70;99.90;;;;;;10096016;28;20037;-70
2023/08/25 10:57:41;;;;;;;6.32;3.95;;;23.70;99.90;;;;;;10096332;28;20053;-70
2023/08/25 11:02:35;;;;;;;6.38;4.15;;;23.70;99.90;;;;;;10086002;28;20706;-69
2023/08/25 11:07:44;;;;;;;5.53;3.72;;;23.80;99.90;;;;;;10096796;28;20493;-69
2023/08/25 11:12:35;;;;;;;5.47;4.38;;;23.80;99.90;;;;;;10095241;28;20053;-69
2023/08/25 11:17:26;;;;;;;5.80;3.72;;;23.70;99.90;;;;;;10095388;28;20111;-70
2023/08/25 11:22:17;;;;;;;5.95;3.97;;;23.80;99.90;;;;;;10077678;28;20476;-70
2023/08/25 11:27:09;;;;;;;4.40;3.67;;;23.80;99.90;;;;;;10095780;28;20029;-72
2023/08/25 11:32:01;;;;;;;6.68;3.53;;;23.90;99.90;;;;;;10094559;28;20119;-70
2023/08/25 11:36:52;;;;;;;4.22;3.08;;;23.90;99.90;;;;;;10102032;28;20025;-69
2023/08/25 11:41:43;;;;;;;4.05;3.25;;;24.10;99.90;;;;;;10091910;28;20041;-70
2023/08/25 11:46:33;;;;;;;7.57;3.55;;;24.20;99.90;;;;;;10096093;28;20115;-73
2023/08/25 11:51:27;;;;;;;4.90;3.65;;;24.20;99.90;;;;;;10091036;28;20036;-68
2023/08/25 11:56:19;;;;;;;4.78;3.05;;;24.20;99.90;;;;;;10095072;28;20037;-69
2023/08/25 12:01:11;;;;;;;5.25;3.25;;;24.40;99.90;;;;;;10095138;28;20044;-70
2023/08/25 12:06:12;;;;;;;3.92;3.00;;;24.50;99.90;;;;;;10099350;28;20033;-69
2023/08/25 12:11:05;;;;;;;6.28;3.20;;;24.50;99.90;;;;;;10096528;28;20770;-69
2023/08/25 12:15:57;;;;;;;4.10;3.35;;;24.60;99.90;;;;;;10111845;28;20479;-69
2023/08/25 12:20:48;;;;;;;6.35;2.67;;;24.70;99.90;;;;;;10084123;28;20045;-68
2023/08/25 12:25:42;;;;;;;2.78;2.47;;;24.80;99.90;;;;;;10099622;28;20017;-69
2023/08/25 12:30:33;;;;;;;4.37;2.63;;;24.80;99.90;;;;;;10102149;28;20032;-69
2023/08/25 12:35:24;;;;;;;3.83;3.15;;;24.90;99.90;;;;;;10086660;28;20517;-69
2023/08/25 12:40:20;;;;;;;8.88;3.13;;;25.00;99.90;;;;;;10079323;28;20490;-70
2023/08/25 12:45:10;;;;;;;5.07;3.15;;;25.20;99.90;;;;;;10082267;28;20091;-69
2023/08/25 12:50:01;;;;;;;4.03;2.80;;;25.20;99.90;;;;;;10097728;28;20039;-70
2023/08/25 12:54:52;;;;;;;6.38;3.47;;;25.30;99.90;;;;;;10100067;28;20570;-69
2023/08/25 12:59:43;;;;;;;4.80;2.58;;;25.30;99.90;;;;;;10099625;28;20025;-68
2023/08/25 13:04:34;;;;;;;7.85;3.50;;;25.40;99.90;;;;;;10099961;28;20390;-68
2023/08/25 13:09:25;;;;;;;2.97;2.63;;;25.40;99.90;;;;;;10099428;28;20037;-69
2023/08/25 13:14:15;;;;;;;4.90;2.83;;;25.50;99.90;;;;;;10100111;28;20052;-69
2023/08/25 13:19:06;;;;;;;3.92;2.50;;;25.60;99.90;;;;;;10098277;28;20017;-69
2023/08/25 13:23:57;;;;;;;6.68;2.80;;;25.80;99.90;;;;;;10094183;28;20546;-70
2023/08/25 13:28:49;;;;;;;5.47;2.63;;;25.80;99.90;;;;;;10076850;28;20291;-69
2023/08/25 13:33:40;;;;;;;4.43;2.80;;;25.70;99.90;;;;;;10074430;28;20077;-69
2023/08/25 13:38:31;;;;;;;3.35;2.55;;;25.90;99.90;;;;;;10101427;28;20025;-70
2023/08/25 13:43:22;;;;;;;3.97;2.20;;;26.10;99.90;;;;;;10093337;28;20045;-70
2023/08/25 13:48:13;;;;;;;4.15;2.47;;;26.20;99.90;;;;;;10107572;28;20048;-70
2023/08/25 13:53:05;;;;;;;3.33;2.78;;;26.30;99.90;;;;;;10098414;28;20083;-70
2023/08/25 13:57:56;;;;;;;3.25;2.55;;;26.50;99.90;;;;;;10108972;28;20021;-71
2023/08/25 14:02:47;;;;;;;5.47;3.30;;;26.60;99.90;;;;;;10097385;28;20069;-70
2023/08/25 14:07:38;;;;;;;2.42;2.22;;;26.80;99.90;;;;;;10097454;28;20036;-70
2023/08/25 14:12:29;;;;;;;4.93;2.58;;;27.00;99.90;;;;;;10102546;28;20053;-71
2023/08/25 14:17:20;;;;;;;4.15;2.47;;;27.10;99.90;;;;;;10095994;28;20068;-71
2023/08/25 14:22:11;;;;;;;3.17;2.28;;;27.30;99.90;;;;;;10096864;28;20029;-70
2023/08/25 14:27:03;;;;;;;4.18;2.60;;;27.50;99.90;;;;;;10097351;28;20045;-71
2023/08/25 14:31:53;;;;;;;3.95;2.20;;;27.70;99.90;;;;;;10100474;28;20127;-70
2023/08/25 14:36:44;;;;;;;5.90;2.53;;;27.90;99.90;;;;;;10106409;28;20025;-72
2023/08/25 14:41:35;;;;;;;4.47;2.53;;;27.80;99.90;;;;;;10101522;28;20395;-71
2023/08/25 14:46:27;;;;;;;4.57;2.78;;;27.80;99.90;;;;;;10102198;28;20036;-71
2023/08/25 14:51:18;;;;;;;3.85;2.40;;;27.70;99.90;;;;;;10095756;28;20032;-70
2023/08/25 14:56:13;;;;;;;3.38;2.30;;;27.50;99.90;;;;;;10090262;28;20426;-70
2023/08/25 15:01:04;;;;;;;3.70;2.55;;;27.60;99.90;;;;;;10095660;28;20402;-72
2023/08/25 15:05:56;;;;;;;5.82;2.50;;;27.60;99.90;;;;;;10096718;28;20208;-69
2023/08/25 15:10:47;;;;;;;3.67;2.42;;;27.70;99.90;;;;;;10099514;28;20049;-69
2023/08/25 15:15:38;;;;;;;4.35;2.30;;;27.70;99.90;;;;;;10096806;28;20287;-70
2023/08/25 15:20:28;;;;;;;3.42;2.90;;;28.00;99.90;;;;;;10095126;28;20051;-71
2023/08/25 15:25:19;;;;;;;4.20;2.70;;;28.60;99.90;;;;;;10096572;28;20027;-71
2023/08/25 15:30:11;;;;;;;5.78;2.38;;;29.10;99.90;;;;;;10075785;28;20029;-71
2023/08/25 15:35:02;;;;;;;3.50;2.55;;;29.40;99.90;;;;;;10107273;28;20036;-70
2023/08/25 15:39:53;;;;;;;3.63;2.25;;;29.60;99.90;;;;;;10092544;28;20115;-70
2023/08/25 15:44:45;;;;;;;3.78;2.63;;;29.80;99.90;;;;;;10099634;28;20431;-71
2023/08/25 15:49:36;;;;;;;3.45;2.15;;;29.90;99.90;;;;;;10102836;28;20035;-71
2023/08/25 15:54:27;;;;;;;4.10;2.30;;;30.10;99.90;;;;;;10101289;28;20031;-71
2023/08/25 15:59:17;;;;;;;5.05;2.40;;;30.20;99.90;;;;;;10083937;28;20044;-70
2023/08/25 16:04:08;;;;;;;2.88;2.00;;;30.30;99.90;;;;;;10101665;28;20049;-71
2023/08/25 16:08:58;;;;;;;5.10;2.75;;;30.70;99.90;;;;;;10084166;28;20177;-71
2023/08/25 16:13:50;;;;;;;7.72;3.22;;;31.00;99.90;;;;;;10102216;28;20105;-71
2023/08/25 16:18:43;;;;;;;4.97;2.63;;;31.30;99.90;;;;;;10083700;28;20498;-71
2023/08/25 16:23:39;;;;;;;5.47;2.58;;;31.40;99.90;;;;;;10098405;28;20067;-71
2023/08/25 16:28:30;;;;;;;3.55;2.92;;;31.00;99.90;;;;;;10083393;28;20025;-71
2023/08/25 16:33:20;;;;;;;3.40;2.58;;;31.20;99.90;;;;;;10105013;28;20044;-71
2023/08/25 16:38:11;;;;;;;3.50;2.88;;;31.60;99.90;;;;;;10089723;28;20044;-71
2023/08/25 16:43:02;;;;;;;4.22;2.35;;;31.70;99.90;;;;;;10095847;28;20044;-70
2023/08/25 16:47:53;;;;;;;5.05;3.33;;;31.40;99.90;;;;;;10100862;28;20060;-71
2023/08/25 16:52:44;;;;;;;5.00;3.10;;;30.90;99.90;;;;;;10080625;28;20502;-71
2023/08/25 16:57:34;;;;;;;5.05;3.33;;;30.40;99.90;;;;;;10100655;28;20033;-71
2023/08/25 17:02:26;;;;;;;3.08;2.65;;;30.20;99.90;;;;;;10095351;28;20041;-70
2023/08/25 17:07:16;;;;;;;3.28;2.50;;;30.00;99.90;;;;;;10099713;28;20013;-71
2023/08/25 17:12:07;;;;;;;8.60;4.35;;;30.00;99.90;;;;;;10094881;28;20056;-70
2023/08/25 17:16:58;;;;;;;6.32;3.83;;;29.80;99.90;;;;;;10082154;28;20025;-71
2023/08/25 17:21:48;;;;;;;5.75;3.47;;;30.10;99.90;;;;;;10098832;28;20052;-70
2023/08/25 17:26:39;;;;;;;5.15;3.60;;;30.10;99.90;;;;;;10098840;28;20108;-70
2023/08/25 17:31:32;;;;;;;6.97;3.60;;;29.90;99.90;;;;;;10080899;28;20029;-70
2023/08/25 17:36:22;;;;;;;5.53;3.55;;;29.80;99.90;;;;;;10082731;28;20060;-70
2023/08/25 17:41:14;;;;;;;6.95;4.18;;;29.70;99.90;;;;;;10096676;28;20568;-71
2023/08/25 17:46:06;;;;;;;5.30;3.05;;;29.60;99.90;;;;;;10088346;28;20111;-70
2023/08/25 17:50:57;;;;;;;5.30;3.60;;;29.40;99.90;;;;;;10107320;28;20041;-71
2023/08/25 17:55:48;;;;;;;6.78;3.70;;;29.40;99.90;;;;;;10098585;28;20029;-71
2023/08/25 18:00:40;;;;;;;9.32;4.10;;;29.40;99.90;;;;;;10097469;28;20033;-71
2023/08/25 18:05:32;;;;;;;9.23;4.57;;;29.30;99.90;;;;;;10097510;28;20033;-70
2023/08/25 18:10:25;;;;;;;5.35;3.03;;;29.20;99.90;;;;;;10097774;28;20442;-71
2023/08/25 18:15:16;;;;;;;3.58;2.85;;;29.20;99.90;;;;;;10097180;28;20044;-71
2023/08/25 18:20:11;;;;;;;5.47;3.55;;;29.20;99.90;;;;;;10097347;28;20621;-70
2023/08/25 18:25:01;;;;;;;4.93;3.00;;;29.10;99.90;;;;;;10097335;28;20052;-70
2023/08/25 18:29:52;;;;;;;7.93;3.95;;;29.10;99.90;;;;;;10091945;28;20037;-70
2023/08/25 18:34:45;;;;;;;5.57;3.53;;;29.00;99.90;;;;;;10108234;28;20111;-70
2023/08/25 18:39:36;;;;;;;6.07;3.72;;;29.00;99.90;;;;;;10096570;28;20090;-71
2023/08/25 18:44:27;;;;;;;7.20;3.97;;;28.90;99.90;;;;;;10090918;28;20049;-71
2023/08/25 18:49:18;;;;;;;6.05;4.30;;;28.80;99.90;;;;;;10077598;28;20494;-71
2023/08/25 18:54:08;;;;;;;6.78;3.50;;;28.90;99.90;;;;;;10095857;28;20043;-71
2023/08/25 18:58:59;;;;;;;4.28;3.88;;;28.80;99.90;;;;;;10096221;28;20095;-71
2023/08/25 19:03:49;;;;;;;10.70;6.07;;;28.80;99.90;;;;;;10095821;28;20051;-70
2023/08/25 19:08:40;;;;;;;4.68;3.97;;;28.80;99.90;;;;;;10091426;28;20453;-70
2023/08/25 19:13:31;;;;;;;6.68;4.45;;;28.70;99.90;;;;;;10077325;28;20056;-70
2023/08/25 19:18:26;;;;;;;7.43;4.85;;;28.60;99.90;;;;;;10103031;28;20104;-71
2023/08/25 19:23:16;;;;;;;7.60;4.47;;;28.60;99.90;;;;;;10084929;28;20037;-71
2023/08/25 19:28:07;;;;;;;6.03;4.28;;;28.50;99.90;;;;;;10103446;28;20041;-71
2023/08/25 19:32:57;;;;;;;8.30;3.42;;;28.50;99.90;;;;;;10108088;28;20094;-70
2023/08/25 19:37:48;;;;;;;6.32;3.10;;;28.40;99.90;;;;;;10113340;28;20037;-71
2023/08/25 19:42:43;;;;;;;5.18;2.60;;;28.20;99.90;;;;;;10102665;28;20120;-72
2023/08/25 19:47:33;;;;;;;6.45;3.10;;;28.10;99.90;;;;;;10102874;28;20487;-71
2023/08/25 19:52:24;;;;;;;4.35;2.63;;;28.00;99.90;;;;;;10102333;28;20033;-71
2023/08/25 19:57:16;;;;;;;4.50;3.22;;;28.10;99.90;;;;;;10101734;28;20025;-71
2023/08/25 20:02:06;;;;;;;4.90;2.70;;;28.00;99.90;;;;;;10083487;28;20041;-70
2023/08/25 20:06:57;;;;;;;6.50;3.33;;;27.90;99.90;;;;;;10100804;28;20662;-72
2023/08/25 20:11:47;;;;;;;5.03;2.50;;;27.90;99.90;;;;;;10101310;28;20053;-72
2023/08/25 20:16:38;;;;;;;4.32;2.40;;;27.90;99.90;;;;;;10101646;28;20567;-72
2023/08/25 20:21:29;;;;;;;4.05;2.50;;;27.80;99.90;;;;;;10101051;28;20041;-71
2023/08/25 20:26:20;;;;;;;3.53;2.60;;;27.70;99.90;;;;;;10081850;28;20467;-71
2023/08/25 20:31:11;;;;;;;3.42;2.85;;;27.60;99.90;;;;;;10087561;28;20033;-70
2023/08/25 20:36:05;;;;;;;5.15;2.80;;;27.40;99.90;;;;;;10097705;28;20040;-70
2023/08/25 20:40:58;;;;;;;4.15;2.45;;;27.30;99.90;;;;;;10099827;28;20056;-69
2023/08/25 20:46:08;;;;;;;5.18;3.00;;;27.20;99.90;;;;;;10095399;28;20367;-69
2023/08/25 20:50:59;;;;;;;4.15;2.83;;;27.30;99.90;;;;;;10100024;28;20502;-68
2023/08/25 20:55:50;;;;;;;5.25;2.80;;;27.20;99.90;;;;;;10100546;28;20031;-69
2023/08/25 21:00:41;;;;;;;5.63;3.40;;;27.10;99.90;;;;;;10100737;28;20090;-69
2023/08/25 21:05:31;;;;;;;4.85;3.30;;;27.00;99.90;;;;;;10100266;28;20150;-70
2023/08/25 21:10:22;;;;;;;7.82;4.97;;;26.90;99.90;;;;;;10099792;28;20130;-69
2023/08/25 21:15:13;;;;;;;6.18;3.15;;;26.90;99.90;;;;;;10096801;28;20046;-69
2023/08/25 21:20:04;;;;;;;6.43;3.53;;;27.00;99.90;;;;;;10081262;28;20032;-70
2023/08/25 21:24:55;;;;;;;4.65;2.65;;;27.00;99.90;;;;;;10099406;28;20031;-69
2023/08/25 21:29:46;;;;;;;6.40;3.97;;;26.90;99.90;;;;;;10097956;28;20072;-69
2023/08/25 21:34:38;;;;;;;5.63;3.38;;;26.90;99.90;;;;;;10101404;28;20556;-69
2023/08/25 21:39:29;;;;;;;3.83;3.00;;;26.70;99.90;;;;;;10097465;28;20522;-69
2023/08/25 21:44:20;;;;;;;3.58;2.67;;;26.50;99.90;;;;;;10092898;28;20040;-70
2023/08/25 21:49:10;;;;;;;7.85;3.53;;;26.30;99.90;;;;;;10098226;28;20025;-69
2023/08/25 21:54:01;;;;;;;6.25;3.83;;;26.10;99.90;;;;;;10097949;28;20056;-69
2023/08/25 21:58:52;;;;;;;4.18;2.72;;;26.10;99.90;;;;;;10095144;28;20315;-69
2023/08/25 22:03:43;;;;;;;3.67;2.72;;;25.70;99.90;;;;;;10098608;28;20045;-69
2023/08/25 22:08:34;;;;;;;3.92;2.65;;;25.70;99.90;;;;;;10099344;28;20033;-69
2023/08/25 22:13:25;;;;;;;3.65;2.67;;;25.70;99.90;;;;;;10080823;28;20078;-69
2023/08/25 22:18:19;;;;;;;4.10;3.03;;;25.90;99.90;;;;;;10098393;28;20395;-70
2023/08/25 22:23:09;;;;;;;4.40;2.47;;;25.80;99.90;;;;;;10079708;28;20146;-69
2023/08/25 22:28:00;;;;;;;4.28;3.33;;;25.80;99.90;;;;;;10096763;28;20434;-69
2023/08/25 22:32:51;;;;;;;3.08;2.10;;;25.90;99.90;;;;;;10099929;28;20411;-69
2023/08/25 22:37:41;;;;;;;3.28;2.80;;;25.70;99.90;;;;;;10102633;28;20112;-69
2023/08/25 22:42:32;;;;;;;4.85;2.92;;;25.70;99.90;;;;;;10071672;28;20037;-71
2023/08/25 22:47:23;;;;;;;3.58;2.50;;;25.90;99.90;;;;;;10078714;28;20470;-70
2023/08/25 22:52:14;;;;;;;5.78;2.33;;;25.60;99.90;;;;;;10096192;28;20029;-71
2023/08/25 22:57:04;;;;;;;6.55;3.35;;;25.80;99.90;;;;;;10095970;28;20052;-71
2023/08/25 23:01:59;;;;;;;4.35;2.55;;;25.70;99.90;;;;;;10095529;28;20037;-70
2023/08/25 23:06:50;;;;;;;4.88;3.20;;;25.90;99.90;;;;;;10078034;28;20048;-69
2023/08/25 23:11:41;;;;;;;4.10;3.00;;;25.80;99.90;;;;;;10094688;28;20372;-71
2023/08/25 23:16:31;;;;;;;5.93;3.55;;;25.70;99.90;;;;;;10096715;28;20032;-71
2023/08/25 23:21:25;;;;;;;3.75;2.85;;;25.90;99.90;;;;;;10095256;28;20056;-70
2023/08/25 23:26:16;;;;;;;5.60;3.33;;;25.70;99.90;;;;;;10076770;28;20116;-69
2023/08/25 23:31:08;;;;;;;5.18;3.20;;;25.70;99.90;;;;;;10099504;28;20461;-70
2023/08/25 23:36:01;;;;;;;5.93;3.50;;;25.70;99.90;;;;;;10083813;28;20025;-69
2023/08/25 23:40:53;;;;;;;4.72;3.20;;;25.40;99.90;;;;;;10094668;28;20230;-69
2023/08/25 23:45:44;;;;;;;4.85;3.10;;;25.60;99.90;;;;;;10076518;28;20048;-70
2023/08/25 23:50:34;;;;;;;6.75;2.80;;;25.60;99.90;;;;;;10076890;28;20056;-69
2023/08/25 23:55:25;;;;;;;4.68;3.60;;;25.50;99.90;;;;;;10094696;28;20372;-68
